Flight Track Log - Related Links

Times and Time Zones

All times are in EDT time to prevent confusion due to time zone crossing. See the BOE272 flight status page for this flight to view local times or setup timezone preferences in your user account.

Time Position Orientation Groundspeed Altitude Reporting Facility
EDT Latitude Longitude Course Direction KTS MPH feet Rate Location/Type
Wed 09:25:38 PM 47.2286 -119.3739 285° West 181 208 5,600  Level Seattle Center
Wed 09:26:39 PM 47.2464 -119.4544 288° West 207 238 10,200 3,197 Climbing Seattle Center
Wed 09:27:40 PM 47.2806 -119.5517 297° West 276 318 12,100 2,754 Climbing Seattle Center
Wed 09:28:41 PM 47.3197 -119.6719 296° West 323 372 15,800 3,719 Climbing Seattle Center
Wed 09:29:41 PM 47.3603 -119.7967 296° West 333 383 19,600 3,521 Climbing Seattle Center
Wed 09:30:42 PM 47.4022 -119.9264 296° West 346 398 22,900 2,361 Climbing Seattle Center
Wed 09:31:43 PM 47.4494 -120.0681 296° West 379 436 24,400 1,328 Climbing Seattle Center
Wed 09:32:44 PM 47.5033 -120.2283 297° West 432 497 25,600 1,869 Climbing Seattle Center
Wed 09:33:45 PM 47.5689 -120.4308 296° West 454 522 28,200 2,508 Climbing Seattle Center
Wed 09:34:46 PM 47.6236 -120.6011 296° West 458 527 30,700 2,380 Climbing Seattle Center
Wed 09:35:46 PM 47.6764 -120.7681 295° West 451 519 33,000 2,083 Climbing Seattle Center
Wed 09:36:47 PM 47.7886 -120.8594 331° Northwest 470 541 34,900 984 Climbing Seattle Center
Wed 09:37:48 PM 47.9108 -120.9167 343° North 470 541 35,000 49 Climbing Seattle Center
Wed 09:38:49 PM 48.0317 -120.9767 342° North 465 535 35,000 -443 Level Seattle Center
Wed 09:39:50 PM 48.1525 -121.0325 343° North 462 532 34,100 -1,537 Descending Seattle Center
Wed 09:40:50 PM 48.2714 -121.0867 343° North 458 527 31,900 -2,380 Descending Seattle Center
Wed 09:41:51 PM 48.3169 -121.2325 295° West 413 475 29,300 -5,164 Descending Seattle Center
Wed 09:42:52 PM 48.3247 -121.3947 274° West 396 456 21,400 -7,426 Descending Seattle Center
Wed 09:43:53 PM 48.3325 -121.5861 274° West 390 449 14,200 -5,822 Descending Seattle Center
Wed 09:44:33 PM 48.3128 -121.6753 252° West 338 389 11,600 -3,738 Descending Seattle Center
Wed 09:44:54 PM 48.3019 -121.7172 249° West 341 392 10,400 -1,522 Descending Seattle Center
Wed 09:45:40 PM 48.2769 -121.8106 248° West 272 313 9,900 -224 Descending Seattle Center
Wed 09:46:41 PM 48.2497 -121.9106 248° West 254 292 10,000 50 Climbing Seattle Center
Wed 09:47:41 PM 48.2250 -122.0122 250° West 257 296 10,000  Level Seattle Center
Wed 09:47:56 PM 48.2208 -122.0256 245° Southwest 261 300 10,000  Level Seattle Center
Wed 09:48:42 PM 48.1975 -122.1122 248° West 263 303 10,000  Level Seattle Center
Wed 09:48:57 PM 48.1944 -122.1261 252° West 263 303 10,000  Level Seattle Center
Wed 09:49:42 PM 48.1725 -122.2136 249° West 262 302 10,000  Level Seattle Center
Wed 09:49:58 PM 48.1697 -122.2272 253° West 262 302 10,000 -590 Level Seattle Center
Wed 09:50:43 PM 48.1769 -122.3247 276° West 249 287 9,400 -700 Descending Seattle Center
Wed 09:50:58 PM 48.1781 -122.3292 291° West 252 290 9,300 -1,421 Descending Seattle Center
Wed 09:51:59 PM 48.1983 -122.4492 284° West 251 289 7,600 -1,472 Descending Seattle Center
Wed 09:52:44 PM 48.2122 -122.5214 286° West 247 284 6,700 -1,180 Descending Seattle Center
Wed 09:53:00 PM 48.2181 -122.5456 290° West 248 285 6,400 -787 Descending Seattle Center
Wed 09:53:45 PM 48.2322 -122.6167 287° West 239 275 5,900 -730 Descending Seattle Center
Wed 09:54:14 PM 48.2292 -122.6608 264° West 229 264 5,500 -750 Descending Seattle Center
Wed 09:54:57 PM 48.1911 -122.7050 218° Southwest 233 268 5,000 -923 Descending Seattle Center
Wed 09:55:58 PM 48.1400 -122.6503 144° Southeast 264 304 3,900 -984 Descending Seattle Center
Wed 09:56:59 PM 48.0878 -122.5828 139° Southeast 249 287 3,000 -446 Descending Seattle Center
Wed 09:57:59 PM 48.0306 -122.5219 145° Southeast 245 282 3,000  Level Seattle Center
Wed 09:59:00 PM 47.9739 -122.4639 146° Southeast 243 280 3,000  Level Seattle Center
Wed 10:00:05 PM 47.9189 -122.4089 146° Southeast 260 299 3,000 -393 Level Seattle Center
Wed 10:01:02 PM 47.8408 -122.3856 169° South 265 305 2,200 -407 Descending Seattle Center
Wed 10:02:03 PM 47.7689 -122.3825 178° South 257 296 2,200  Level Seattle Center
Wed 10:03:03 PM 47.7511 -122.3197 113° Southeast 177 204 2,200  Level Seattle Center
Wed 10:04:04 PM 47.7911 -122.2844 31° Northeast 175 201 2,200 -238 Level Seattle Center
Wed 10:05:09 PM 47.8381 -122.2836 North 164 189 1,700 -590 Descending Seattle Center
Wed 10:06:06 PM 47.8761 -122.2867 357° North 129 148 1,000 -492 Descending Seattle Center
Wed 10:07:11 PM 47.9114 -122.2867 360° North 136 157 700 -277 Descending Seattle Center

Login

Don't have an account? Register now (free) for customized features, flight alerts, and more!